Time;durP1;ratioP1;P1;durP2;ratioP2;P2;SDS_P1;SDS_P2;PMS_P1;PMS_P2;Temp;Humidity;BMP_temperature;BMP_pressure;BME280_temperature;BME280_humidity;BME280_pressure;Samples;Min_cycle;Max_cycle;Signal;HPM_P1;HPM_P2
2022/05/29 00:01:01;;;;;;;3.72;0.80;;;15.70;59.10;;;;;;4956621;28;20031;-77
2022/05/29 00:03:27;;;;;;;2.88;0.70;;;15.60;59.00;;;;;;4972450;28;20422;-76
2022/05/29 00:05:56;;;;;;;2.15;0.60;;;15.60;59.10;;;;;;4955505;28;20030;-77
2022/05/29 00:08:30;;;;;;;3.60;0.70;;;15.60;59.20;;;;;;4963688;28;20034;-77
2022/05/29 00:10:58;;;;;;;1.80;0.73;;;15.60;59.10;;;;;;4976348;28;20050;-78
2022/05/29 00:13:24;;;;;;;3.22;0.70;;;15.60;59.20;;;;;;4977053;28;20053;-77
2022/05/29 00:15:50;;;;;;;4.28;0.82;;;15.60;59.40;;;;;;4976113;28;20022;-78
2022/05/29 00:18:16;;;;;;;1.42;0.60;;;15.60;59.60;;;;;;4976730;28;20027;-78
2022/05/29 00:20:44;;;;;;;2.63;0.90;;;15.50;61.50;;;;;;4960628;28;20467;-78
2022/05/29 00:23:09;;;;;;;3.88;0.98;;;15.50;62.00;;;;;;4976293;28;20023;-77
2022/05/29 00:25:35;;;;;;;3.13;0.88;;;15.50;61.20;;;;;;4977457;28;20041;-77
2022/05/29 00:28:00;;;;;;;6.55;0.93;;;15.40;61.40;;;;;;4959916;28;20031;-78
2022/05/29 00:30:26;;;;;;;3.90;0.75;;;15.40;61.40;;;;;;4960165;28;20460;-77
2022/05/29 00:32:52;;;;;;;3.28;1.05;;;15.40;61.40;;;;;;4959752;28;20022;-76
2022/05/29 00:35:17;;;;;;;3.65;0.77;;;15.40;61.30;;;;;;4960010;28;20035;-77
2022/05/29 00:37:43;;;;;;;4.93;1.15;;;15.30;61.00;;;;;;4960218;28;20412;-77
2022/05/29 00:40:36;;;;;;;4.72;0.95;;;15.30;61.40;;;;;;4975482;28;20117;-76
2022/05/29 00:43:02;;;;;;;3.33;0.98;;;15.30;61.60;;;;;;4975493;28;20082;-76
2022/05/29 00:45:31;;;;;;;2.65;0.75;;;15.30;61.50;;;;;;4976018;28;20460;-76
2022/05/29 00:47:59;;;;;;;3.17;0.70;;;15.30;61.70;;;;;;4975353;28;20476;-77
2022/05/29 00:50:24;;;;;;;4.20;0.80;;;15.30;62.00;;;;;;4976787;28;20046;-76
2022/05/29 00:52:51;;;;;;;2.25;0.55;;;15.30;62.00;;;;;;4976514;28;20085;-77
2022/05/29 00:55:21;;;;;;;5.20;0.93;;;15.20;62.20;;;;;;4975376;28;20125;-76
2022/05/29 00:57:58;;;;;;;2.65;0.77;;;15.20;62.50;;;;;;4976197;28;20098;-77
2022/05/29 01:00:28;;;;;;;7.28;0.85;;;15.20;62.40;;;;;;4976729;28;20026;-76
2022/05/29 01:02:59;;;;;;;4.43;1.02;;;15.10;62.40;;;;;;4975885;28;20026;-77
2022/05/29 01:05:29;;;;;;;2.95;0.88;;;15.10;62.40;;;;;;4959566;28;20468;-76
2022/05/29 01:08:15;;;;;;;4.30;0.85;;;15.00;62.60;;;;;;4976049;28;20461;-76
2022/05/29 01:10:50;;;;;;;3.08;0.80;;;15.00;62.70;;;;;;4976932;28;20034;-77
2022/05/29 01:13:27;;;;;;;4.75;0.65;;;15.00;63.10;;;;;;4976752;28;20023;-78
2022/05/29 01:16:05;;;;;;;3.92;0.80;;;14.90;62.90;;;;;;4974935;28;20061;-78
2022/05/29 01:18:35;;;;;;;2.60;0.70;;;14.90;63.00;;;;;;4975662;28;20050;-77
2022/05/29 01:21:29;;;;;;;5.70;1.00;;;14.90;63.40;;;;;;4975756;28;20027;-77
2022/05/29 01:24:18;;;;;;;2.05;0.70;;;14.90;63.40;;;;;;4976174;28;20464;-77
2022/05/29 01:27:25;;;;;;;5.03;0.85;;;14.90;63.50;;;;;;4975173;28;20065;-77
2022/05/29 01:29:59;;;;;;;3.45;0.90;;;14.80;63.40;;;;;;4975125;28;20031;-77
2022/05/29 01:32:52;;;;;;;1.42;0.70;;;14.80;63.60;;;;;;4976473;28;20030;-77
2022/05/29 01:35:27;;;;;;;4.88;1.27;;;14.70;63.60;;;;;;4944899;28;20035;-77
2022/05/29 01:38:02;;;;;;;5.32;1.13;;;14.70;63.90;;;;;;4975765;28;20025;-77
2022/05/29 01:40:48;;;;;;;2.10;0.80;;;14.70;64.10;;;;;;4959355;28;20027;-77
2022/05/29 01:43:41;;;;;;;3.85;0.93;;;14.70;64.20;;;;;;4974859;28;20026;-76
2022/05/29 01:46:23;;;;;;;4.28;0.93;;;14.60;64.50;;;;;;4974395;28;20371;-77
2022/05/29 01:48:52;;;;;;;4.32;0.75;;;14.60;64.60;;;;;;4975670;28;20026;-79
2022/05/29 01:51:49;;;;;;;1.80;0.77;;;14.70;64.50;;;;;;4975083;28;20026;-77
2022/05/29 01:54:43;;;;;;;5.10;0.80;;;14.60;64.40;;;;;;4974994;28;20066;-77
2022/05/29 01:57:13;;;;;;;5.57;0.63;;;14.60;65.00;;;;;;4974501;28;20033;-77
2022/05/29 01:59:55;;;;;;;5.60;1.15;;;14.60;64.90;;;;;;4975901;28;20023;-77
2022/05/29 02:02:43;;;;;;;4.20;0.85;;;14.60;65.40;;;;;;4974833;28;20026;-77
2022/05/29 02:05:14;;;;;;;3.30;0.80;;;14.60;65.70;;;;;;4973990;28;20093;-77
2022/05/29 02:07:50;;;;;;;4.43;0.98;;;14.60;65.80;;;;;;4958565;28;20046;-78
2022/05/29 02:10:37;;;;;;;5.50;0.95;;;14.60;65.90;;;;;;4974785;28;20030;-77
2022/05/29 02:13:38;;;;;;;3.25;0.70;;;14.60;66.00;;;;;;4974295;28;20452;-77
2022/05/29 02:16:17;;;;;;;3.75;1.00;;;14.50;66.40;;;;;;4897210;29;20028;-78
2022/05/29 02:19:06;;;;;;;2.80;1.08;;;14.50;66.40;;;;;;4949138;28;20031;-78
2022/05/29 02:21:32;;;;;;;3.47;0.90;;;14.50;66.80;;;;;;4958801;28;20015;-78
2022/05/29 02:24:04;;;;;;;2.58;0.77;;;14.40;66.90;;;;;;4973946;28;20045;-78
2022/05/29 02:26:35;;;;;;;6.50;0.70;;;14.30;66.70;;;;;;4974079;28;20141;-77
2022/05/29 02:29:07;;;;;;;3.08;0.70;;;14.30;67.00;;;;;;4973961;28;20026;-77
2022/05/29 02:31:35;;;;;;;4.32;0.88;;;14.20;67.00;;;;;;4974489;28;20030;-77
2022/05/29 02:34:31;;;;;;;4.43;0.90;;;14.20;67.20;;;;;;4973279;28;20030;-77
2022/05/29 02:37:17;;;;;;;3.58;0.85;;;14.10;67.60;;;;;;4973856;28;20460;-78
2022/05/29 02:40:07;;;;;;;5.80;0.93;;;14.10;67.70;;;;;;4974345;28;20023;-77
2022/05/29 02:43:10;;;;;;;4.20;0.90;;;14.10;67.90;;;;;;4974783;28;20460;-77
2022/05/29 02:45:55;;;;;;;2.20;0.90;;;14.10;67.90;;;;;;4973963;28;20058;-77
2022/05/29 02:48:39;;;;;;;4.00;0.75;;;14.20;68.00;;;;;;4973908;28;20034;-77
2022/05/29 02:51:23;;;;;;;5.68;0.70;;;14.10;68.20;;;;;;4973030;28;20050;-77
2022/05/29 02:53:49;;;;;;;3.95;1.10;;;14.00;68.30;;;;;;4973844;28;20022;-77
2022/05/29 02:56:15;;;;;;;4.93;1.02;;;14.00;68.70;;;;;;4957219;28;20084;-77
2022/05/29 02:58:45;;;;;;;2.58;0.82;;;14.00;68.60;;;;;;4957631;28;20030;-77
2022/05/29 03:01:36;;;;;;;7.27;1.80;;;13.90;69.10;;;;;;4973319;28;20023;-77
2022/05/29 03:04:07;;;;;;;4.97;0.88;;;14.00;68.90;;;;;;4972998;28;20479;-76
2022/05/29 03:06:59;;;;;;;4.45;1.00;;;13.90;68.90;;;;;;4973585;28;20031;-76
2022/05/29 03:09:25;;;;;;;5.05;1.00;;;14.00;69.00;;;;;;4953513;28;20105;-76
2022/05/29 03:11:51;;;;;;;3.75;0.90;;;13.90;69.40;;;;;;4973364;28;20030;-76
2022/05/29 03:14:31;;;;;;;8.25;1.15;;;13.90;69.50;;;;;;4956727;28;20479;-76
2022/05/29 03:17:34;;;;;;;4.32;0.93;;;13.80;70.00;;;;;;4974132;28;20045;-77
2022/05/29 03:20:24;;;;;;;7.43;1.20;;;13.70;70.40;;;;;;4973005;28;20093;-78
2022/05/29 03:22:50;;;;;;;3.35;1.00;;;13.70;70.20;;;;;;4973549;28;20172;-77
2022/05/29 03:25:18;;;;;;;4.38;1.00;;;13.60;70.10;;;;;;4972810;28;20113;-77
2022/05/29 03:27:47;;;;;;;5.82;1.02;;;13.60;70.40;;;;;;4974523;28;20031;-76
2022/05/29 03:30:28;;;;;;;6.07;1.20;;;13.60;70.70;;;;;;4973952;28;20069;-76
2022/05/29 03:32:57;;;;;;;4.43;0.90;;;13.60;71.10;;;;;;4957295;28;20027;-76
2022/05/29 03:35:26;;;;;;;2.72;1.33;;;13.60;72.00;;;;;;4957093;28;20133;-76
2022/05/29 03:37:53;;;;;;;5.93;0.90;;;13.50;73.00;;;;;;4973097;28;20035;-75
2022/05/29 03:40:20;;;;;;;8.32;1.15;;;13.40;74.70;;;;;;4973211;28;20368;-75
2022/05/29 03:42:46;;;;;;;6.85;1.17;;;13.30;77.80;;;;;;4957893;28;20023;-76
2022/05/29 03:45:13;;;;;;;5.18;0.90;;;13.20;80.40;;;;;;4976898;28;20124;-76
2022/05/29 03:47:39;;;;;;;3.85;1.10;;;13.20;81.70;;;;;;4960753;28;20023;-76
2022/05/29 03:50:08;;;;;;;6.70;1.30;;;13.10;83.30;;;;;;4976506;28;20023;-77
2022/05/29 03:52:34;;;;;;;7.32;1.20;;;13.00;85.10;;;;;;4976897;28;20034;-76
2022/05/29 03:55:00;;;;;;;4.07;1.23;;;12.90;86.40;;;;;;4960325;28;20023;-76
2022/05/29 03:57:27;;;;;;;4.25;1.10;;;12.90;87.80;;;;;;4976927;28;20456;-76
2022/05/29 03:59:52;;;;;;;5.30;0.98;;;12.80;89.30;;;;;;4960333;28;20023;-76
2022/05/29 04:02:18;;;;;;;6.45;1.35;;;12.80;90.30;;;;;;4960119;28;20027;-76
2022/05/29 04:04:44;;;;;;;4.22;1.45;;;12.80;91.00;;;;;;4960500;28;20031;-76
2022/05/29 04:07:10;;;;;;;5.15;1.20;;;12.80;91.10;;;;;;4977501;28;20090;-77
2022/05/29 04:12:20;;;;;;;6.10;1.10;;;12.80;91.50;;;;;;4977193;28;20050;-77
2022/05/29 04:14:46;;;;;;;7.18;1.50;;;12.90;91.60;;;;;;4976533;28;20023;-76
2022/05/29 04:17:18;;;;;;;8.30;1.42;;;12.90;91.90;;;;;;4959746;28;20118;-77
2022/05/29 04:19:46;;;;;;;4.43;1.52;;;12.90;92.10;;;;;;4977611;28;20019;-76
2022/05/29 04:22:18;;;;;;;7.22;1.45;;;12.80;92.00;;;;;;4959745;28;20023;-76
2022/05/29 04:24:44;;;;;;;;;;;12.90;92.40;;;;;;4978149;28;20135;-76
2022/05/29 04:27:12;;;;;;;7.10;1.58;;;12.90;93.00;;;;;;4959453;28;20326;-76
2022/05/29 04:29:38;;;;;;;3.97;1.05;;;12.90;93.00;;;;;;4977209;28;20015;-76
2022/05/29 04:34:48;;;;;;;5.53;1.40;;;12.90;92.60;;;;;;4977197;28;20383;-76
2022/05/29 04:37:14;;;;;;;6.10;1.40;;;13.00;92.50;;;;;;4959016;28;20031;-76
2022/05/29 04:39:40;;;;;;;5.75;1.13;;;12.90;92.30;;;;;;4959926;28;20029;-76
2022/05/29 04:42:05;;;;;;;4.18;1.30;;;12.90;92.00;;;;;;4959240;28;20065;-76
2022/05/29 04:44:32;;;;;;;6.30;1.50;;;12.90;92.20;;;;;;4976020;28;20023;-76
2022/05/29 04:47:02;;;;;;;5.85;1.10;;;12.90;92.20;;;;;;4959495;28;20080;-76
2022/05/29 04:49:28;;;;;;;6.93;1.30;;;13.00;92.40;;;;;;4959662;28;20029;-76
2022/05/29 04:51:53;;;;;;;5.18;1.23;;;13.00;92.40;;;;;;4976965;28;20106;-76
2022/05/29 04:54:19;;;;;;;4.40;1.30;;;13.10;92.00;;;;;;4958172;28;20693;-76
2022/05/29 04:56:49;;;;;;;5.00;1.27;;;13.10;91.90;;;;;;4977041;28;20113;-76
2022/05/29 04:59:15;;;;;;;6.35;1.65;;;13.10;91.80;;;;;;4959239;28;20030;-76
2022/05/29 05:01:41;;;;;;;6.13;1.45;;;13.10;91.80;;;;;;4975752;28;20026;-76
2022/05/29 05:04:07;;;;;;;5.32;1.33;;;13.10;91.50;;;;;;4976237;28;20027;-76
2022/05/29 05:06:32;;;;;;;3.80;1.30;;;13.10;91.30;;;;;;4959292;28;20031;-77
2022/05/29 05:08:58;;;;;;;5.40;1.20;;;13.20;91.00;;;;;;4959681;28;20114;-77
2022/05/29 05:11:24;;;;;;;4.00;1.17;;;13.20;90.80;;;;;;4959129;28;20036;-76
2022/05/29 05:13:50;;;;;;;5.88;1.50;;;13.20;90.80;;;;;;4976569;28;20027;-76
2022/05/29 05:16:16;;;;;;;4.75;1.50;;;13.20;90.80;;;;;;4975888;28;20058;-76
2022/05/29 05:18:41;;;;;;;5.63;1.20;;;13.20;90.70;;;;;;4976145;28;20456;-76
2022/05/29 05:21:08;;;;;;;7.40;1.30;;;13.10;90.40;;;;;;4958683;28;20455;-76
2022/05/29 05:23:34;;;;;;;6.57;1.30;;;13.10;90.50;;;;;;4976446;28;20037;-76
2022/05/29 05:26:00;;;;;;;6.22;1.30;;;13.10;90.40;;;;;;4958837;28;20049;-76
2022/05/29 05:28:26;;;;;;;5.43;1.70;;;13.20;90.00;;;;;;4958339;28;20113;-77
2022/05/29 05:30:51;;;;;;;4.63;1.30;;;13.20;89.70;;;;;;4976270;28;20452;-76
2022/05/29 05:33:17;;;;;;;7.07;1.23;;;13.10;89.60;;;;;;4974445;28;20025;-77
2022/05/29 05:35:42;;;;;;;3.45;1.08;;;13.10;89.50;;;;;;4958853;28;20037;-77
2022/05/29 05:38:08;;;;;;;5.68;1.20;;;13.10;89.50;;;;;;4974404;28;20027;-77
2022/05/29 05:40:34;;;;;;;2.58;0.90;;;13.00;89.50;;;;;;4974783;28;20376;-77
2022/05/29 05:43:00;;;;;;;5.38;1.27;;;13.10;89.50;;;;;;4974812;28;20372;-77
2022/05/29 05:45:26;;;;;;;3.38;1.10;;;13.10;89.30;;;;;;4958066;28;20026;-77
2022/05/29 05:47:51;;;;;;;3.67;1.15;;;13.10;89.10;;;;;;4958514;28;20033;-77
2022/05/29 05:50:17;;;;;;;4.80;1.30;;;13.20;89.20;;;;;;4975418;28;20029;-77
2022/05/29 05:52:43;;;;;;;5.03;1.13;;;13.20;89.30;;;;;;4976010;28;20077;-77
2022/05/29 05:55:11;;;;;;;5.75;0.95;;;13.20;89.10;;;;;;4958139;28;20066;-78
2022/05/29 05:57:38;;;;;;;6.32;1.30;;;13.20;88.90;;;;;;4974285;28;20094;-76
2022/05/29 06:00:07;;;;;;;5.75;1.27;;;13.40;88.20;;;;;;4957873;28;20062;-77
2022/05/29 06:02:33;;;;;;;4.90;1.20;;;13.40;87.60;;;;;;4974321;28;20022;-77
2022/05/29 06:04:58;;;;;;;9.20;1.58;;;13.40;87.80;;;;;;4975362;28;20460;-76
2022/05/29 06:07:24;;;;;;;7.40;1.50;;;13.50;87.50;;;;;;4957722;28;20085;-77
2022/05/29 06:09:50;;;;;;;4.13;1.20;;;13.60;86.80;;;;;;4958180;28;20030;-76
2022/05/29 06:12:19;;;;;;;3.55;1.10;;;13.60;86.40;;;;;;4974908;28;20027;-77
2022/05/29 06:14:46;;;;;;;8.18;1.30;;;13.70;86.80;;;;;;4975363;28;20015;-77
2022/05/29 06:17:11;;;;;;;3.17;1.02;;;13.80;86.00;;;;;;4973754;28;20042;-77
2022/05/29 06:19:37;;;;;;;4.32;1.15;;;13.80;85.90;;;;;;4958048;28;20026;-77
2022/05/29 06:22:03;;;;;;;8.27;1.20;;;13.80;85.90;;;;;;4975286;28;20059;-76
2022/05/29 06:24:29;;;;;;;7.55;1.55;;;13.90;86.50;;;;;;4957493;28;20368;-76
2022/05/29 06:26:57;;;;;;;3.08;1.00;;;13.90;86.00;;;;;;4974928;28;20057;-77
2022/05/29 06:29:23;;;;;;;5.70;1.35;;;14.00;86.00;;;;;;4957560;28;20023;-77
2022/05/29 06:31:49;;;;;;;5.75;1.20;;;14.10;86.20;;;;;;4957932;28;20375;-77
2022/05/29 06:34:14;;;;;;;7.35;1.38;;;14.20;85.80;;;;;;4957457;28;20042;-77
2022/05/29 06:36:40;;;;;;;10.57;1.30;;;14.30;86.20;;;;;;4973877;28;20038;-77
2022/05/29 06:39:06;;;;;;;5.43;1.20;;;14.40;85.80;;;;;;4957883;28;20027;-80
2022/05/29 06:41:33;;;;;;;5.80;1.35;;;14.50;86.10;;;;;;4958194;28;20117;-78
2022/05/29 06:43:59;;;;;;;9.13;1.48;;;14.40;84.90;;;;;;4957789;28;20029;-77
2022/05/29 06:46:25;;;;;;;4.95;1.00;;;14.40;85.00;;;;;;4957556;28;20026;-77
2022/05/29 06:48:51;;;;;;;7.82;1.50;;;14.40;85.80;;;;;;4957891;28;20057;-76
2022/05/29 06:51:21;;;;;;;6.65;1.80;;;14.30;85.60;;;;;;4972990;28;20051;-76
2022/05/29 06:53:49;;;;;;;5.82;1.40;;;14.30;85.60;;;;;;4973888;28;20042;-77
2022/05/29 06:56:15;;;;;;;3.70;1.15;;;14.30;85.50;;;;;;4955539;28;20035;-76
2022/05/29 06:58:41;;;;;;;4.78;1.17;;;14.30;85.50;;;;;;4972820;28;20029;-77
2022/05/29 07:06:59;;;;;;;3.78;1.00;;;14.10;85.80;;;;;;4972018;28;20081;-77
2022/05/29 07:09:25;;;;;;;3.42;1.00;;;14.10;86.20;;;;;;4973926;28;20033;-77
2022/05/29 07:12:15;;;;;;;6.78;1.52;;;14.00;85.90;;;;;;4973361;28;20029;-77
2022/05/29 07:14:46;;;;;;;2.67;0.82;;;14.00;85.90;;;;;;4970269;28;20035;-77
2022/05/29 07:17:11;;;;;;;5.53;1.57;;;13.90;86.70;;;;;;4972177;28;20031;-78
2022/05/29 07:19:37;;;;;;;4.60;1.00;;;13.90;85.80;;;;;;4973047;28;20118;-76
2022/05/29 07:22:03;;;;;;;4.65;1.20;;;13.90;86.00;;;;;;4973936;28;20023;-77
2022/05/29 07:24:30;;;;;;;3.95;1.05;;;13.90;86.10;;;;;;4972150;28;20030;-77
2022/05/29 07:26:56;;;;;;;2.00;0.80;;;13.80;86.40;;;;;;4973931;28;20039;-77
2022/05/29 07:29:22;;;;;;;5.90;1.30;;;13.80;86.80;;;;;;4972409;28;20392;-78
2022/05/29 07:31:50;;;;;;;5.38;1.00;;;13.80;86.90;;;;;;4973111;28;20042;-77
2022/05/29 07:34:15;;;;;;;4.40;1.17;;;13.80;86.90;;;;;;4972403;28;20058;-78
2022/05/29 07:36:41;;;;;;;3.22;1.30;;;13.80;87.10;;;;;;4968493;28;20689;-80
2022/05/29 07:39:08;;;;;;;4.05;0.90;;;13.80;88.00;;;;;;4973348;28;20034;-80
2022/05/29 07:44:17;;;;;;;4.80;0.90;;;14.00;88.30;;;;;;4973415;28;20066;-81
2022/05/29 07:46:43;;;;;;;4.47;1.05;;;13.90;88.10;;;;;;4972691;28;20074;-80
2022/05/29 07:49:09;;;;;;;3.75;0.93;;;13.90;88.80;;;;;;4975127;28;20095;-80
2022/05/29 07:51:34;;;;;;;4.63;1.23;;;13.80;89.40;;;;;;4982500;28;20069;-80
2022/05/29 07:54:00;;;;;;;2.47;0.88;;;13.80;89.40;;;;;;4973143;28;20027;-80
2022/05/29 07:56:26;;;;;;;4.43;1.00;;;13.80;90.80;;;;;;4972183;28;20046;-78
2022/05/29 07:58:52;;;;;;;2.67;0.70;;;13.70;90.60;;;;;;4972877;28;20050;-78
2022/05/29 08:01:19;;;;;;;3.97;0.63;;;13.60;90.80;;;;;;4972307;28;20031;-82
2022/05/29 08:03:45;;;;;;;7.60;1.33;;;13.60;91.80;;;;;;4972802;28;20031;-83
2022/05/29 08:06:11;;;;;;;1.75;0.63;;;13.60;92.00;;;;;;4972815;28;20194;-85
2022/05/29 08:08:37;;;;;;;4.05;1.25;;;13.60;92.20;;;;;;4973039;28;20110;-82
2022/05/29 08:11:03;;;;;;;2.42;0.70;;;13.50;91.80;;;;;;4972990;28;20047;-74
2022/05/29 08:13:30;;;;;;;2.63;0.82;;;13.50;91.80;;;;;;4971678;28;20472;-76
2022/05/29 08:15:56;;;;;;;5.50;2.03;;;13.50;91.60;;;;;;4973706;28;20043;-77
2022/05/29 08:18:22;;;;;;;2.50;1.17;;;13.50;91.90;;;;;;4972747;28;20027;-80
2022/05/29 08:20:48;;;;;;;4.55;0.85;;;13.50;92.40;;;;;;4952987;29;20027;-78
2022/05/29 08:23:14;;;;;;;4.00;0.75;;;13.50;92.20;;;;;;4959066;28;20022;-81
2022/05/29 08:31:07;;;;;;;4.07;0.70;;;13.50;92.10;;;;;;4977864;28;20039;-78
2022/05/29 08:33:35;;;;;;;2.92;1.00;;;13.60;91.50;;;;;;4975190;28;20147;-79
2022/05/29 08:36:13;;;;;;;3.50;0.70;;;13.60;91.40;;;;;;4976352;28;20085;-78
2022/05/29 08:38:42;;;;;;;2.55;0.60;;;13.70;92.30;;;;;;4955927;29;20481;-78
2022/05/29 08:41:13;;;;;;;5.03;0.82;;;13.90;91.70;;;;;;4939092;29;20035;-80
2022/05/29 08:43:48;;;;;;;2.60;0.73;;;14.00;91.70;;;;;;4955641;29;20151;-81
2022/05/29 08:46:20;;;;;;;2.58;0.70;;;14.00;91.30;;;;;;4955328;29;20082;-81
2022/05/29 08:48:47;;;;;;;3.35;0.90;;;14.00;92.00;;;;;;4955041;29;20035;-79
2022/05/29 08:51:28;;;;;;;2.55;0.90;;;13.90;92.00;;;;;;4954989;29;20051;-82
2022/05/29 08:54:14;;;;;;;6.07;0.93;;;14.00;91.80;;;;;;4955828;29;20489;-80
2022/05/29 08:57:03;;;;;;;4.70;1.13;;;13.90;92.10;;;;;;4954533;29;20111;-81
2022/05/29 08:59:54;;;;;;;2.40;1.00;;;13.90;92.00;;;;;;4954304;28;20055;-79
2022/05/29 09:02:40;;;;;;;4.18;1.27;;;13.90;92.60;;;;;;4938761;29;20043;-79
2022/05/29 09:05:27;;;;;;;5.53;1.40;;;13.90;92.40;;;;;;4900978;29;20047;-79
2022/05/29 09:08:01;;;;;;;6.32;1.63;;;13.70;92.30;;;;;;4954061;29;20042;-79
2022/05/29 09:10:40;;;;;;;4.85;1.88;;;13.70;92.10;;;;;;4953865;29;20047;-79
2022/05/29 09:13:39;;;;;;;5.80;1.30;;;13.70;92.50;;;;;;4954442;29;20038;-78
2022/05/29 09:16:11;;;;;;;5.63;1.42;;;13.70;92.90;;;;;;4963197;28;20050;-79
2022/05/29 09:18:41;;;;;;;6.72;1.30;;;13.70;92.50;;;;;;4958688;28;20048;-79
2022/05/29 09:21:18;;;;;;;3.20;1.30;;;13.70;92.10;;;;;;4972022;28;20053;-79
2022/05/29 09:23:55;;;;;;;5.35;1.15;;;13.90;93.40;;;;;;4974557;28;20030;-84
2022/05/29 09:26:21;;;;;;;1.42;1.00;;;14.00;92.40;;;;;;4973165;28;20058;-79
2022/05/29 09:28:49;;;;;;;1.70;0.75;;;14.20;92.30;;;;;;4964190;28;20112;-79
2022/05/29 09:31:34;;;;;;;1.98;1.02;;;14.30;91.50;;;;;;4975175;28;20551;-81
2022/05/29 09:34:06;;;;;;;4.22;0.90;;;14.50;92.10;;;;;;4974553;28;20419;-80
2022/05/29 09:36:56;;;;;;;2.05;0.90;;;14.50;91.40;;;;;;4974416;28;20038;-79
2022/05/29 09:39:27;;;;;;;3.78;0.90;;;14.50;89.50;;;;;;4975692;28;20035;-78
2022/05/29 09:42:11;;;;;;;4.03;0.90;;;14.50;89.00;;;;;;4957810;28;20487;-79
2022/05/29 09:45:00;;;;;;;3.20;1.20;;;14.40;89.10;;;;;;4959318;28;20122;-78
2022/05/29 09:50:18;;;;;;;3.67;0.90;;;14.50;89.80;;;;;;4975272;28;20432;-79
2022/05/29 09:52:45;;;;;;;5.00;0.90;;;14.70;86.00;;;;;;4935414;29;20054;-80
2022/05/29 09:55:31;;;;;;;3.25;0.85;;;14.70;84.90;;;;;;4919847;29;20039;-80
2022/05/29 09:58:01;;;;;;;3.75;0.95;;;14.70;85.70;;;;;;4954362;29;20176;-81
2022/05/29 10:00:39;;;;;;;4.85;0.90;;;14.70;82.60;;;;;;4939327;29;20031;-80
2022/05/29 10:03:09;;;;;;;4.38;0.85;;;14.80;83.80;;;;;;4939633;29;20027;-80
2022/05/29 10:05:40;;;;;;;2.83;1.00;;;14.90;84.40;;;;;;4954172;28;20065;-79
2022/05/29 10:08:41;;;;;;;2.80;1.07;;;15.10;84.40;;;;;;4937602;29;20027;-82
2022/05/29 10:11:28;;;;;;;4.10;0.88;;;15.20;83.50;;;;;;4954135;29;20023;-78
2022/05/29 10:13:54;;;;;;;5.47;1.23;;;15.30;82.10;;;;;;4938285;29;20042;-82
2022/05/29 10:16:51;;;;;;;2.70;1.02;;;15.10;82.60;;;;;;4954189;29;20075;-80
2022/05/29 10:19:52;;;;;;;1.23;0.55;;;15.10;83.80;;;;;;4954310;29;20040;-82
2022/05/29 10:22:32;;;;;;;1.35;0.60;;;15.00;80.90;;;;;;4881619;29;20056;-80
2022/05/29 10:25:00;;;;;;;1.40;0.70;;;14.80;79.70;;;;;;4912320;29;20032;-78
2022/05/29 10:27:36;;;;;;;3.75;0.80;;;14.80;79.70;;;;;;4880591;29;20064;-76
2022/05/29 10:30:29;;;;;;;1.60;0.60;;;14.90;78.80;;;;;;4861748;29;20424;-77
2022/05/29 10:33:13;;;;;;;4.53;0.82;;;15.00;79.20;;;;;;4878652;29;20054;-80
2022/05/29 10:35:43;;;;;;;3.60;1.08;;;15.10;79.60;;;;;;4848761;29;20086;-83
2022/05/29 10:38:17;;;;;;;2.70;0.98;;;15.10;79.40;;;;;;4853228;29;20037;-78
2022/05/29 10:40:45;;;;;;;2.05;0.63;;;15.20;80.50;;;;;;4854181;29;20124;-78
2022/05/29 10:43:11;;;;;;;2.33;0.60;;;15.30;79.10;;;;;;4858611;29;20073;-79
2022/05/29 10:46:21;;;;;;;1.42;0.60;;;15.30;78.80;;;;;;4859162;29;20041;-79
2022/05/29 10:49:12;;;;;;;4.25;0.70;;;15.40;75.80;;;;;;4848107;29;20061;-77
2022/05/29 10:52:13;;;;;;;3.55;1.13;;;15.60;77.50;;;;;;4858754;29;20436;-78
2022/05/29 10:55:03;;;;;;;3.15;0.75;;;15.70;76.90;;;;;;4874156;29;20036;-76
2022/05/29 10:58:04;;;;;;;3.60;0.80;;;15.70;76.30;;;;;;4875280;29;20037;-77
2022/05/29 11:03:17;;;;;;;2.70;0.73;;;15.90;77.40;;;;;;4915665;29;20040;-81
2022/05/29 11:04:48;;;;;;;583.78;326.85;;;16.20;77.00;;;;;;4838607;29;20038;-77
2022/05/29 11:07:50;;;;;;;40.85;24.33;;;16.10;74.00;;;;;;4805446;29;20496;-79
2022/05/29 11:10:32;;;;;;;14.68;9.50;;;16.10;74.70;;;;;;4749410;30;20567;-80
2022/05/29 11:13:05;;;;;;;;;;;16.10;73.70;;;;;;4762759;29;20087;-78
2022/05/29 11:16:19;;;;;;;7.82;4.45;;;16.20;72.50;;;;;;4812694;29;19916;-78
2022/05/29 11:19:15;;;;;;;4.15;2.05;;;16.30;73.30;;;;;;4770143;30;20051;-78
2022/05/29 11:22:21;;;;;;;4.30;1.45;;;16.50;67.90;;;;;;4768067;30;20508;-79
2022/05/29 11:25:11;;;;;;;2.50;0.90;;;16.70;66.90;;;;;;4767239;30;20182;-78
2022/05/29 11:27:49;;;;;;;1.60;0.70;;;16.90;66.00;;;;;;4775450;30;20047;-78
2022/05/29 11:30:25;;;;;;;2.78;0.90;;;17.00;65.00;;;;;;4771317;30;20167;-77
2022/05/29 11:33:02;;;;;;;6.63;0.82;;;17.10;65.40;;;;;;4767745;30;20039;-79
2022/05/29 11:35:51;;;;;;;4.85;0.90;;;17.20;65.30;;;;;;4759387;30;20227;-79
2022/05/29 11:38:54;;;;;;;6.22;0.85;;;17.40;65.30;;;;;;4766532;30;20048;-82
2022/05/29 11:41:36;;;;;;;3.50;0.60;;;17.30;64.10;;;;;;4758972;30;20054;-81
2022/05/29 11:44:06;;;;;;;;;;;17.30;64.90;;;;;;4765191;30;20043;-78
2022/05/29 11:53:09;;;;;;;3.13;1.10;;;16.60;63.70;;;;;;4763127;30;20169;-77
2022/05/29 11:55:40;;;;;;;4.97;1.40;;;16.40;64.00;;;;;;4768198;29;20046;-77
2022/05/29 11:58:15;;;;;;;2.35;0.60;;;16.50;67.40;;;;;;4786968;29;20147;-77
2022/05/29 12:00:47;;;;;;;1.25;0.90;;;16.40;65.10;;;;;;4798848;29;20093;-76
2022/05/29 12:03:13;;;;;;;;;;;16.30;64.90;;;;;;4784660;29;20040;-76
2022/05/29 12:05:46;;;;;;;1.63;0.60;;;16.10;62.50;;;;;;4789936;29;20386;-76
2022/05/29 12:08:19;;;;;;;3.97;0.77;;;16.00;65.00;;;;;;4790055;29;20075;-77
2022/05/29 12:11:00;;;;;;;2.05;0.60;;;16.10;65.00;;;;;;4789675;29;20126;-77
2022/05/29 12:13:42;;;;;;;7.75;0.98;;;16.20;65.70;;;;;;4789981;29;20043;-78
2022/05/29 12:16:12;;;;;;;3.25;0.90;;;16.50;64.30;;;;;;4801131;29;20047;-79
2022/05/29 12:18:51;;;;;;;2.65;0.85;;;16.80;63.40;;;;;;4822749;29;20046;-77
2022/05/29 12:21:24;;;;;;;2.58;0.77;;;17.10;63.40;;;;;;4841658;29;20038;-77
2022/05/29 12:23:52;;;;;;;1.88;0.80;;;17.40;64.30;;;;;;4826192;29;20160;-79
2022/05/29 12:26:29;;;;;;;2.22;0.80;;;17.50;63.10;;;;;;4807573;29;20298;-80
2022/05/29 12:29:31;;;;;;;2.45;0.73;;;17.50;62.90;;;;;;4807544;29;20046;-78
2022/05/29 12:32:02;;;;;;;2.92;1.00;;;17.30;63.90;;;;;;4843487;29;20041;-76
2022/05/29 12:34:46;;;;;;;4.78;1.10;;;17.20;69.00;;;;;;4896636;29;20036;-78
2022/05/29 12:37:26;;;;;;;4.10;1.05;;;17.30;72.60;;;;;;4881236;29;20140;-77
2022/05/29 12:40:23;;;;;;;3.83;1.00;;;17.40;73.60;;;;;;4896606;29;20028;-79
2022/05/29 12:43:18;;;;;;;6.25;1.10;;;17.70;67.70;;;;;;4881008;29;20037;-78
2022/05/29 12:46:11;;;;;;;2.42;0.80;;;17.70;67.00;;;;;;4880911;29;20028;-77
2022/05/29 12:48:58;;;;;;;2.88;1.15;;;17.90;70.70;;;;;;4914661;29;20032;-77
2022/05/29 12:52:01;;;;;;;4.57;0.90;;;18.10;71.00;;;;;;4907276;29;20601;-78
2022/05/29 12:55:17;;;;;;;;;;;;;;;;;;;;;
2022/05/29 12:58:08;;;;;;;3.13;1.65;;;18.40;68.20;;;;;;4935648;28;20047;-82
2022/05/29 13:01:03;;;;;;;0.57;0.40;;;18.20;65.80;;;;;;4977501;28;20031;-83
2022/05/29 13:04:06;;;;;;;1.50;0.60;;;18.00;65.00;;;;;;4976917;28;20033;-85
2022/05/29 13:06:41;;;;;;;6.65;1.27;;;17.80;63.60;;;;;;4973386;28;20030;-82
2022/05/29 13:09:26;;;;;;;3.67;0.98;;;18.00;63.90;;;;;;4974640;28;20038;-81
2022/05/29 13:12:05;;;;;;;1.75;0.55;;;18.40;61.10;;;;;;4961470;29;20038;-82
2022/05/29 13:14:32;;;;;;;3.13;0.55;;;18.70;62.60;;;;;;4978347;28;20543;-82
2022/05/29 13:17:19;;;;;;;2.08;0.70;;;18.90;60.00;;;;;;4974846;28;20368;-81
2022/05/29 13:19:57;;;;;;;2.97;0.70;;;19.00;57.60;;;;;;4970970;28;20027;-80
2022/05/29 13:22:46;;;;;;;2.47;0.50;;;19.30;55.50;;;;;;4952818;28;20102;-82
2022/05/29 13:25:14;;;;;;;3.28;0.88;;;19.60;54.80;;;;;;4969632;28;20041;-81
2022/05/29 13:27:40;;;;;;;2.65;0.75;;;19.90;53.60;;;;;;4973867;28;20138;-81
2022/05/29 13:30:28;;;;;;;3.28;0.82;;;20.00;53.50;;;;;;4973876;28;20109;-81
2022/05/29 13:33:36;;;;;;;1.15;0.57;;;20.50;52.50;;;;;;4974755;28;20023;-82
2022/05/29 13:36:02;;;;;;;3.90;0.60;;;20.90;52.50;;;;;;4947306;28;20496;-83
2022/05/29 13:38:48;;;;;;;2.50;0.68;;;21.50;51.00;;;;;;4974689;28;20038;-82
2022/05/29 13:42:08;;;;;;;4.35;0.60;;;22.00;48.90;;;;;;4957069;28;20027;-82
2022/05/29 13:44:53;;;;;;;1.52;0.57;;;22.20;48.80;;;;;;4897753;29;20514;-81
2022/05/29 13:47:18;;;;;;;5.95;0.90;;;22.30;47.60;;;;;;4897179;29;20072;-81
2022/05/29 13:50:31;;;;;;;2.67;0.77;;;22.40;48.00;;;;;;4881511;29;20157;-80
2022/05/29 13:53:07;;;;;;;3.47;1.70;;;22.60;47.40;;;;;;4826464;29;20042;-81
2022/05/29 13:55:42;;;;;;;2.67;0.70;;;23.00;46.70;;;;;;4844834;29;20042;-81
2022/05/29 14:05:06;;;;;;;3.15;0.55;;;23.30;47.10;;;;;;4850386;29;20502;-79